Flight ASX205X

  • Submitted By: Lukasz Przybylak
  • Departure Airport: Gdansk im. Lecha Walesy (EPGD)
  • Arrival Airport: Katowice Pyrzowice (EPKT)
  • Aircraft: KING AIR 350 (SP-DBL)
  • Flight Time: 02.02.39
  • Date Submitted: 09/10/2017
  • Route: IRLUN N133 NEGUV M66 KUKAM
  • Status: Accepted
Flight Details
Gross Revenue:
(8 load / € 80.00 per unit
€ 640.00
Fuel Cost:
(379.657 fuel used @ 0.45 / unit)
€ 170.85

Additional Log Information:

View Log

[06:27] - CARENADO B350i King Air 5003
[06:27] - Flight ASX205X is ready to depart EPGD with a final destination of EPKT.
[06:27] - Navigation Lights ON
[06:27] - Beacon Light ON
[06:27] - Instrument Lights ON
[06:27] - Boarding
[06:27] - Engine 1 Started
[06:27] - Engine 2 Started
[06:29] - Taxi Lights ON 3AGL
[06:29] - Recognition Lights ON 3AGL
[06:30] - Flaps to position 1
[06:30] - Flaps to position 0
[06:30] - Flaps to position 1
[06:36] - Parking Brake Released
[06:36] - Pushing Back from the gate
[06:38] - Taxiing to Runway
[06:41] - Landing Lights ON 3AGL
[06:41] - Taxi Lights OFF 3AGL
[06:41] - Strobe Lights ON 3AGL
[06:42] - Taking Off with 8 passengers on board
[06:42] - Take off at 127kts, with a pitch of 5deg and 2905lbs of fuel on board
[06:42] - Wind Heading 255 | Wind Speed 5kts | Temperature 14 deg C
[06:42] - METAR Departure: EPGD 100430Z 23004KT 190V260 CAVOK 14/12 Q1002

[06:42] - Flaps to position 0 at 630ft and 151kts
[06:43] - Climbing to TOC
[06:43] - Gear up at 1014AGL
[06:43] - AutoPilot Engaged at 1227AGL
[06:43] - Wing Lights ON 1840AGL
[06:46] - Landing Lights OFF 4656AGL
[06:58] - TOC reached
[06:58] - Cruise started
[07:47] - TOD reached
[07:47] - Descending to destination
[07:53] - Landing Shortly
[07:54] - Landing Lights ON 3911AGL
[08:08] - Gear down at 2254AGL
[08:08] - Flaps to position 1 at 3038ft and 149kts
[08:12] - AutoPilot Disengaged at 170AGL
[08:12] - Landed at -181fpm. With 2143lbs of fuel onboard and a pitch angle of 6deg.
[08:12] - Wind Heading 156 | Wind Speed 2kts | Temperature 15 deg C
[08:12] - METAR Arrival: EPKT 100600Z 11003KT CAVOK 17/12 Q1005

[08:14] - Taxiing to Gate
[08:14] - Landing Lights OFF 6AGL
[08:14] - Taxi Lights ON 6AGL
[08:14] - Strobe Lights OFF 6AGL
[08:22] - Parking Brake Applied
[08:22] - Arrived safely at EPKT. We hope you enjoyed your flight!
[08:23] - Taxi Lights OFF 6AGL
[08:23] - Recognition Lights OFF 6AGL
[08:24] - Wing Lights OFF 6AGL
[08:28] - Engine 1 Stopped
[08:28] - Engine 2 Stopped
[08:29] - Beacon Lights OFF 6AGL
[08:29] - Navigation Lights OFF 6AGL
[08:29] - CARENADO B350i King Air 5003
[08:29] - MaxSim Rate: 1x
[08:29] - SiouxAcars ver: 1.0.1.2

Route Map